Time;durP1;ratioP1;P1;durP2;ratioP2;P2;SDS_P1;SDS_P2;PMS_P1;PMS_P2;Temp;Humidity;BMP_temperature;BMP_pressure;BME280_temperature;BME280_humidity;BME280_pressure;Samples;Min_cycle;Max_cycle;Signal;HPM_P1;HPM_P2
2023/04/26 00:02:19;;;;;;;;;;;22.30;57.00;;;;;;4815924;55;20338;-27
2023/04/26 00:07:23;;;;;;;;;;;22.20;56.90;;;;;;4746715;58;20255;-28
2023/04/26 00:12:24;;;;;;;;;;;22.20;56.90;;;;;;4834449;55;20299;-29
2023/04/26 00:17:25;;;;;;;;;;;22.20;56.90;;;;;;4811406;55;20072;-30
2023/04/26 00:22:25;;;;;;;;;;;22.20;56.90;;;;;;4782697;55;20108;-28
2023/04/26 00:27:26;;;;;;;;;;;22.20;56.90;;;;;;4746326;58;20084;-30
2023/04/26 00:32:26;;;;;;;;;;;22.20;56.90;;;;;;4762633;55;20141;-28
2023/04/26 00:37:27;;;;;;;;;;;22.20;56.80;;;;;;4762974;55;20072;-29
2023/04/26 00:42:28;;;;;;;;;;;22.20;56.80;;;;;;4746377;58;20084;-30
2023/04/26 00:47:28;;;;;;;;;;;22.20;56.80;;;;;;4748283;55;20319;-28
2023/04/26 00:52:29;;;;;;;;;;;22.20;56.80;;;;;;4760718;55;20259;-26
2023/04/26 00:57:30;;;;;;;;;;;22.20;56.90;;;;;;4859151;55;20068;-28
2023/04/26 01:02:31;;;;;;;;;;;22.20;56.80;;;;;;4823826;55;20169;-31
2023/04/26 01:07:32;;;;;;;;;;;22.20;56.80;;;;;;4808583;55;20116;-27
2023/04/26 01:12:33;;;;;;;;;;;22.20;56.80;;;;;;4746427;58;20310;-28
2023/04/26 01:17:33;;;;;;;;;;;22.20;56.80;;;;;;4746519;58;20342;-29
2023/04/26 01:22:35;;;;;;;;;;;22.20;56.80;;;;;;4746416;58;20291;-28
2023/04/26 01:27:35;;;;;;;;;;;22.20;57.40;;;;;;4975420;55;20390;-28
2023/04/26 01:32:36;;;;;;;;;;;22.20;56.80;;;;;;4862657;55;20115;-27
2023/04/26 01:37:40;;;;;;;;;;;22.20;56.80;;;;;;4764245;55;20328;-27
2023/04/26 01:42:40;;;;;;;;;;;22.20;56.80;;;;;;4753026;55;20072;-28
2023/04/26 01:47:41;;;;;;;;;;;22.20;56.80;;;;;;4746355;55;20111;-29
2023/04/26 01:52:41;;;;;;;;;;;22.20;56.80;;;;;;5016484;55;20110;-28
2023/04/26 01:57:42;;;;;;;;;;;22.20;56.80;;;;;;4746716;58;20298;-27
2023/04/26 02:02:43;;;;;;;;;;;22.20;56.80;;;;;;4746875;56;20292;-26
2023/04/26 02:07:48;;;;;;;;;;;22.20;56.80;;;;;;4821506;55;20347;-26
2023/04/26 02:12:49;;;;;;;;;;;22.20;56.80;;;;;;4774277;55;20282;-24
2023/04/26 02:17:49;;;;;;;;;;;22.20;56.80;;;;;;4856148;55;20163;-28
2023/04/26 02:22:50;;;;;;;;;;;22.20;56.80;;;;;;4767007;55;20120;-27
2023/04/26 02:27:51;;;;;;;;;;;22.20;56.80;;;;;;4794956;55;20061;-27
2023/04/26 02:32:55;;;;;;;;;;;22.20;56.80;;;;;;4817448;55;20155;-29
2023/04/26 02:37:55;;;;;;;;;;;22.20;56.80;;;;;;4783219;55;20367;-32
2023/04/26 02:42:56;;;;;;;;;;;22.20;56.80;;;;;;4798660;55;20081;-31
2023/04/26 02:47:57;;;;;;;;;;;22.20;56.80;;;;;;4762204;55;20673;-32
2023/04/26 02:52:57;;;;;;;;;;;22.20;56.70;;;;;;4750447;55;20072;-30
2023/04/26 02:57:58;;;;;;;;;;;22.20;56.80;;;;;;4746372;58;20069;-28
2023/04/26 03:02:59;;;;;;;;;;;22.20;56.80;;;;;;4746069;58;20152;-27
2023/04/26 03:07:59;;;;;;;;;;;22.20;56.80;;;;;;4746252;58;20112;-27
2023/04/26 03:13:00;;;;;;;;;;;22.20;56.90;;;;;;4765092;55;20347;-27
2023/04/26 03:18:01;;;;;;;;;;;22.20;56.80;;;;;;4746587;58;20100;-28
2023/04/26 03:23:01;;;;;;;;;;;22.20;56.80;;;;;;4746165;58;20104;-28
2023/04/26 03:28:03;;;;;;;;;;;22.20;56.80;;;;;;4779106;55;20370;-28
2023/04/26 03:33:05;;;;;;;;;;;22.20;56.80;;;;;;4872610;55;20131;-27
2023/04/26 03:38:06;;;;;;;;;;;22.20;56.80;;;;;;4746516;58;20291;-27
2023/04/26 03:43:07;;;;;;;;;;;22.20;56.80;;;;;;4746481;58;20073;-27
2023/04/26 03:48:07;;;;;;;;;;;22.20;56.80;;;;;;4781383;55;20348;-27
2023/04/26 03:53:11;;;;;;;;;;;22.20;56.80;;;;;;4745826;58;20139;-28
2023/04/26 03:58:12;;;;;;;;;;;22.20;56.80;;;;;;4817283;55;20179;-29
2023/04/26 04:03:13;;;;;;;;;;;22.20;56.80;;;;;;4794373;55;20359;-29
2023/04/26 04:08:14;;;;;;;;;;;22.20;56.80;;;;;;4766780;55;20108;-27
2023/04/26 04:13:15;;;;;;;;;;;22.20;56.80;;;;;;4751345;55;20330;-28
2023/04/26 04:18:15;;;;;;;;;;;22.20;56.80;;;;;;4786919;55;20052;-25
2023/04/26 04:23:16;;;;;;;;;;;22.20;57.30;;;;;;4809093;55;20065;-27
2023/04/26 04:28:17;;;;;;;;;;;22.20;56.80;;;;;;4815616;55;20306;-30
2023/04/26 04:33:18;;;;;;;;;;;22.20;56.80;;;;;;4795396;55;20060;-30
2023/04/26 04:38:22;;;;;;;;;;;22.20;56.80;;;;;;4770834;55;20084;-32
2023/04/26 04:43:23;;;;;;;;;;;22.20;56.80;;;;;;4753545;55;20279;-29
2023/04/26 04:48:23;;;;;;;;;;;22.20;56.90;;;;;;4792067;55;20120;-29
2023/04/26 04:53:24;;;;;;;;;;;22.20;56.90;;;;;;4832584;55;20108;-29
2023/04/26 04:58:25;;;;;;;;;;;22.20;56.90;;;;;;4746353;58;20073;-29
2023/04/26 05:03:25;;;;;;;;;;;22.20;56.80;;;;;;4766586;55;20108;-31
2023/04/26 05:08:26;;;;;;;;;;;22.20;56.80;;;;;;4749888;55;20064;-27
2023/04/26 05:13:27;;;;;;;;;;;22.20;56.80;;;;;;4769414;55;20068;-28
2023/04/26 05:18:27;;;;;;;;;;;22.20;56.80;;;;;;4753912;55;20163;-30
2023/04/26 05:23:28;;;;;;;;;;;22.20;56.70;;;;;;4747307;55;20308;-32
2023/04/26 05:28:31;;;;;;;;;;;22.20;56.70;;;;;;4823559;55;20104;-31
2023/04/26 05:33:32;;;;;;;;;;;22.20;56.70;;;;;;4746165;58;20112;-30
2023/04/26 05:38:33;;;;;;;;;;;22.20;56.60;;;;;;4746494;55;20057;-28
2023/04/26 05:43:33;;;;;;;;;;;22.10;56.50;;;;;;4796261;55;20149;-31
2023/04/26 05:48:34;;;;;;;;;;;22.10;56.40;;;;;;4844189;55;20299;-30
2023/04/26 05:53:35;;;;;;;;;;;22.10;56.40;;;;;;4771548;55;20096;-28
2023/04/26 05:58:36;;;;;;;;;;;22.10;56.40;;;;;;4752785;55;20306;-28
2023/04/26 06:03:37;;;;;;;;;;;22.10;56.40;;;;;;4795576;55;20084;-27
2023/04/26 06:08:37;;;;;;;;;;;22.10;56.30;;;;;;4862627;55;20291;-31
2023/04/26 06:13:41;;;;;;;;;;;22.10;56.20;;;;;;4791771;55;20120;-32
2023/04/26 06:18:42;;;;;;;;;;;22.10;56.20;;;;;;4778355;55;20069;-25
2023/04/26 06:23:42;;;;;;;;;;;22.10;56.20;;;;;;4744476;58;20101;-27
2023/04/26 06:28:43;;;;;;;;;;;22.10;56.10;;;;;;4748720;55;20179;-27
2023/04/26 06:33:43;;;;;;;;;;;22.10;56.10;;;;;;4743784;58;20077;-28
2023/04/26 06:38:44;;;;;;;;;;;22.10;56.80;;;;;;4747072;55;20299;-28
2023/04/26 06:43:45;;;;;;;;;;;22.10;56.10;;;;;;4772678;55;20072;-33
2023/04/26 06:48:46;;;;;;;;;;;22.10;56.10;;;;;;4746295;55;20192;-27
2023/04/26 06:53:47;;;;;;;;;;;22.10;56.10;;;;;;4759800;55;20318;-28
2023/04/26 06:58:58;;;;;;;;;;;22.10;56.10;;;;;;4753897;55;20066;-32
2023/04/26 07:04:02;;;;;;;;;;;22.10;55.90;;;;;;4752177;55;20290;-26
2023/04/26 07:09:03;;;;;;;;;;;22.10;55.90;;;;;;4761624;55;20149;-31
2023/04/26 07:14:04;;;;;;;;;;;22.10;55.80;;;;;;4807351;55;20063;-24
2023/04/26 07:19:05;;;;;;;;;;;22.10;55.60;;;;;;4743527;58;20098;-29
2023/04/26 07:24:07;;;;;;;;;;;22.20;55.70;;;;;;4754700;55;20343;-27
2023/04/26 07:29:07;;;;;;;;;;;22.20;55.70;;;;;;4752835;55;20307;-28
2023/04/26 07:34:08;;;;;;;;;;;22.20;55.70;;;;;;4747363;55;20128;-21
2023/04/26 07:39:09;;;;;;;;;;;22.30;55.80;;;;;;4743840;58;20375;-31
2023/04/26 07:44:10;;;;;;;;;;;22.30;55.80;;;;;;4759316;55;20359;-32
2023/04/26 07:49:10;;;;;;;;;;;22.40;55.90;;;;;;4747372;55;20116;-29
2023/04/26 07:54:11;;;;;;;;;;;22.40;55.90;;;;;;4783367;55;20351;-29
2023/04/26 07:59:12;;;;;;;;;;;22.40;56.00;;;;;;4788266;55;20048;-27
2023/04/26 08:04:15;;;;;;;;;;;22.40;56.10;;;;;;4751518;55;20080;-32
2023/04/26 08:09:16;;;;;;;;;;;22.50;56.20;;;;;;4751370;55;20076;-23
2023/04/26 08:14:17;;;;;;;;;;;22.50;56.20;;;;;;4790345;55;20112;-28
2023/04/26 08:19:17;;;;;;;;;;;22.50;56.30;;;;;;4748423;55;20358;-26
2023/04/26 08:24:18;;;;;;;;;;;22.60;56.20;;;;;;4757467;55;20112;-27
2023/04/26 08:29:19;;;;;;;;;;;22.60;56.30;;;;;;4751776;55;20315;-31
2023/04/26 08:34:20;;;;;;;;;;;22.60;56.50;;;;;;4746206;55;20853;-26
2023/04/26 08:39:21;;;;;;;;;;;22.60;56.60;;;;;;4743967;58;20115;-28
2023/04/26 08:44:23;;;;;;;;;;;22.60;56.70;;;;;;4752946;55;20347;-24
2023/04/26 08:49:34;;;;;;;;;;;22.60;56.70;;;;;;4758048;55;20354;-26
2023/04/26 08:54:35;;;;;;;;;;;22.60;56.70;;;;;;4749892;55;20061;-30
2023/04/26 08:59:36;;;;;;;;;;;22.70;56.70;;;;;;4774926;55;20072;-25
2023/04/26 09:04:38;;;;;;;;;;;22.70;56.70;;;;;;4757439;55;20295;-25
2023/04/26 09:09:40;;;;;;;;;;;22.70;56.70;;;;;;4767281;55;20172;-26
2023/04/26 09:14:41;;;;;;;;;;;22.70;56.70;;;;;;4761630;55;20108;-29
2023/04/26 09:19:42;;;;;;;;;;;22.70;56.70;;;;;;4777505;55;20160;-24
2023/04/26 09:24:52;;;;;;;;;;;22.70;56.70;;;;;;4744100;58;20072;-28
2023/04/26 09:30:12;;;;;;;;;;;22.70;56.80;;;;;;4764290;55;20072;-25
2023/04/26 09:35:24;;;;;;;;;;;22.70;56.80;;;;;;4743345;58;20295;-30
2023/04/26 09:40:25;;;;;;;;;;;22.70;56.80;;;;;;4779838;55;20128;-25
2023/04/26 09:45:26;;;;;;;;;;;22.70;56.80;;;;;;4744322;55;20160;-28
2023/04/26 09:50:28;;;;;;;;;;;22.70;56.80;;;;;;4768968;55;20160;-29
2023/04/26 09:55:29;;;;;;;;;;;22.80;56.70;;;;;;4751589;55;20076;-27
2023/04/26 10:00:33;;;;;;;;;;;22.70;56.60;;;;;;4741260;58;20057;-28
2023/04/26 10:05:33;;;;;;;;;;;22.70;56.60;;;;;;4756411;55;20138;-27
2023/04/26 10:10:34;;;;;;;;;;;22.70;56.60;;;;;;4748509;55;20069;-26
2023/04/26 10:15:36;;;;;;;;;;;22.70;56.50;;;;;;4777663;55;20347;-29
2023/04/26 10:20:41;;;;;;;;;;;22.70;56.50;;;;;;4744573;58;20287;-32
2023/04/26 10:25:43;;;;;;;;;;;22.70;56.30;;;;;;4777341;55;20138;-25
2023/04/26 10:30:53;;;;;;;;;;;22.70;56.30;;;;;;4743824;55;20132;-26
2023/04/26 10:36:27;;;;;;;;;;;22.70;56.20;;;;;;4744255;58;20120;-23
2023/04/26 10:41:30;;;;;;;;;;;22.70;56.20;;;;;;4751321;55;20282;-28
2023/04/26 10:46:49;;;;;;;;;;;22.80;56.30;;;;;;4785127;55;20300;-27
2023/04/26 10:52:12;;;;;;;;;;;22.70;56.40;;;;;;4794303;55;20283;-29
2023/04/26 10:57:13;;;;;;;;;;;22.80;56.50;;;;;;4761976;55;20107;-28
2023/04/26 11:02:13;;;;;;;;;;;22.80;56.50;;;;;;4744262;58;20600;-32
2023/04/26 11:07:15;;;;;;;;;;;22.80;56.60;;;;;;4781946;55;20169;-27
2023/04/26 11:12:15;;;;;;;;;;;22.80;57.00;;;;;;4743627;58;20473;-27
2023/04/26 11:17:16;;;;;;;;;;;22.70;56.90;;;;;;4770664;55;20118;-30
2023/04/26 11:22:20;;;;;;;;;;;22.70;56.90;;;;;;4770675;55;20310;-27
2023/04/26 11:27:29;;;;;;;;;;;22.70;56.90;;;;;;4756542;55;20367;-27
2023/04/26 11:32:30;;;;;;;;;;;22.60;56.90;;;;;;4743067;55;20089;-27
2023/04/26 11:37:30;;;;;;;;;;;22.60;57.00;;;;;;4743189;58;20132;-30
2023/04/26 11:42:31;;;;;;;;;;;22.60;56.90;;;;;;4754578;55;20112;-28
2023/04/26 11:47:33;;;;;;;;;;;22.60;56.90;;;;;;4791596;55;20119;-26
2023/04/26 11:52:33;;;;;;;;;;;22.60;57.40;;;;;;4746414;55;20079;-20
2023/04/26 11:57:34;;;;;;;;;;;22.60;58.00;;;;;;4743782;58;20129;-23
2023/04/26 12:02:35;;;;;;;;;;;22.60;58.30;;;;;;4767021;55;20073;-27
2023/04/26 12:07:36;;;;;;;;;;;22.70;58.60;;;;;;4750229;55;20121;-27
2023/04/26 12:12:42;;;;;;;;;;;22.70;58.60;;;;;;4765803;55;20375;-27
2023/04/26 12:17:55;;;;;;;;;;;22.70;58.70;;;;;;4768215;55;20157;-29
2023/04/26 12:23:18;;;;;;;;;;;22.70;58.60;;;;;;4743534;58;20299;-24
2023/04/26 12:28:18;;;;;;;;;;;22.80;58.70;;;;;;4769256;55;20084;-28
2023/04/26 12:33:21;;;;;;;;;;;22.80;58.60;;;;;;4764982;55;20116;-25
2023/04/26 12:38:22;;;;;;;;;;;22.80;58.50;;;;;;4770274;55;20267;-28
2023/04/26 12:43:24;;;;;;;;;;;22.80;58.50;;;;;;4761768;55;20116;-26
2023/04/26 12:48:28;;;;;;;;;;;22.80;58.60;;;;;;4745320;55;20739;-26
2023/04/26 12:53:29;;;;;;;;;;;22.90;58.50;;;;;;4743946;58;20088;-27
2023/04/26 12:58:30;;;;;;;;;;;22.90;58.50;;;;;;4755002;55;20355;-29
2023/04/26 13:03:30;;;;;;;;;;;22.90;58.60;;;;;;4762787;55;20108;-27
2023/04/26 13:08:31;;;;;;;;;;;22.80;58.30;;;;;;4774003;55;20136;-29
2023/04/26 13:13:31;;;;;;;;;;;22.80;58.30;;;;;;4758777;55;20398;-32
2023/04/26 13:18:32;;;;;;;;;;;22.80;58.30;;;;;;4777886;55;20275;-27
2023/04/26 13:23:33;;;;;;;;;;;22.70;58.30;;;;;;4797497;55;20076;-32
2023/04/26 13:28:35;;;;;;;;;;;22.70;58.20;;;;;;4801756;55;20318;-27
2023/04/26 13:33:38;;;;;;;;;;;22.70;58.60;;;;;;4789110;55;20065;-25
2023/04/26 13:38:39;;;;;;;;;;;22.70;58.10;;;;;;4760515;55;20080;-30
2023/04/26 13:43:40;;;;;;;;;;;22.60;58.00;;;;;;4746328;58;20342;-29
2023/04/26 13:48:40;;;;;;;;;;;22.60;57.80;;;;;;4786805;55;20056;-30
2023/04/26 13:53:41;;;;;;;;;;;22.60;57.90;;;;;;4745899;58;20084;-30
2023/04/26 13:58:43;;;;;;;;;;;22.60;57.80;;;;;;4760027;55;20319;-31
2023/04/26 14:03:43;;;;;;;;;;;22.60;57.70;;;;;;4746237;58;20425;-23
2023/04/26 14:08:44;;;;;;;;;;;22.50;57.60;;;;;;4785208;55;20072;-30
2023/04/26 14:13:45;;;;;;;;;;;22.60;57.50;;;;;;4786265;55;20357;-33
2023/04/26 14:18:46;;;;;;;;;;;22.50;57.40;;;;;;4764557;55;20056;-28
2023/04/26 14:23:47;;;;;;;;;;;22.50;57.30;;;;;;4866449;55;20793;-28
2023/04/26 14:28:48;;;;;;;;;;;22.50;57.20;;;;;;4745569;58;20111;-29
2023/04/26 14:33:48;;;;;;;;;;;22.50;57.00;;;;;;4809536;55;20327;-27
2023/04/26 14:38:49;;;;;;;;;;;22.50;57.00;;;;;;4776441;55;20132;-29
2023/04/26 14:43:50;;;;;;;;;;;22.50;57.00;;;;;;4793505;55;20361;-29
2023/04/26 14:48:51;;;;;;;;;;;22.50;56.90;;;;;;4746054;58;20174;-27
2023/04/26 14:53:51;;;;;;;;;;;22.50;56.80;;;;;;4820176;55;20287;-31
2023/04/26 14:58:52;;;;;;;;;;;22.50;56.80;;;;;;4746209;58;20176;-28
2023/04/26 15:03:55;;;;;;;;;;;22.50;56.80;;;;;;4780614;55;20068;-36
2023/04/26 15:08:56;;;;;;;;;;;22.50;56.60;;;;;;4770078;55;20096;-30
2023/04/26 15:13:56;;;;;;;;;;;22.50;56.60;;;;;;4754816;55;20089;-27
2023/04/26 15:18:57;;;;;;;;;;;22.50;56.50;;;;;;4755073;55;20120;-30
2023/04/26 15:23:58;;;;;;;;;;;22.50;56.40;;;;;;4746019;58;20104;-30
2023/04/26 15:28:59;;;;;;;;;;;22.50;56.30;;;;;;4745995;58;20191;-26
2023/04/26 15:34:01;;;;;;;;;;;22.40;56.30;;;;;;4794887;55;20072;-28
2023/04/26 15:39:02;;;;;;;;;;;22.40;56.30;;;;;;4746808;58;20151;-29
2023/04/26 15:44:03;;;;;;;;;;;22.40;56.30;;;;;;4830409;55;20342;-29
2023/04/26 15:49:04;;;;;;;;;;;22.40;56.20;;;;;;4768885;55;20294;-29
2023/04/26 15:54:05;;;;;;;;;;;22.40;56.20;;;;;;4745875;58;20382;-28
2023/04/26 15:59:05;;;;;;;;;;;22.40;56.90;;;;;;4766640;55;20061;-29
2023/04/26 16:04:10;;;;;;;;;;;22.40;56.10;;;;;;4746590;55;20061;-28
2023/04/26 16:09:13;;;;;;;;;;;22.40;56.10;;;;;;4764635;55;20112;-26
2023/04/26 16:14:14;;;;;;;;;;;22.40;56.10;;;;;;4745956;58;20395;-28
2023/04/26 16:19:16;;;;;;;;;;;22.40;56.00;;;;;;4787507;55;20120;-27
2023/04/26 16:24:18;;;;;;;;;;;22.40;56.00;;;;;;4766127;55;20318;-32
2023/04/26 16:29:19;;;;;;;;;;;22.40;55.90;;;;;;4759303;55;20097;-28
2023/04/26 16:34:19;;;;;;;;;;;22.40;55.80;;;;;;4831114;55;20152;-28
2023/04/26 16:39:20;;;;;;;;;;;22.40;55.80;;;;;;4824071;55;20056;-29
2023/04/26 16:44:21;;;;;;;;;;;22.40;55.80;;;;;;4813124;55;20084;-28
2023/04/26 16:49:21;;;;;;;;;;;22.40;55.80;;;;;;4745941;58;20322;-33
2023/04/26 16:54:22;;;;;;;;;;;22.40;55.40;;;;;;4803874;55;20660;-29
2023/04/26 16:59:23;;;;;;;;;;;22.40;55.60;;;;;;4746182;58;20272;-31
2023/04/26 17:04:24;;;;;;;;;;;22.40;55.60;;;;;;4746199;55;20387;-30
2023/04/26 17:09:25;;;;;;;;;;;22.40;55.50;;;;;;4746731;58;20288;-28
2023/04/26 17:14:26;;;;;;;;;;;22.40;55.40;;;;;;4804638;55;20113;-28
2023/04/26 17:19:27;;;;;;;;;;;22.40;55.40;;;;;;4746198;58;20595;-32
2023/04/26 17:24:27;;;;;;;;;;;22.40;55.30;;;;;;4820653;55;20065;-33
2023/04/26 17:29:28;;;;;;;;;;;22.40;55.20;;;;;;4745913;55;20128;-25
2023/04/26 17:34:29;;;;;;;;;;;22.40;55.10;;;;;;4775790;55;20069;-28
2023/04/26 17:39:30;;;;;;;;;;;22.40;55.20;;;;;;4877737;55;20360;-29
2023/04/26 17:44:30;;;;;;;;;;;22.40;55.00;;;;;;4746392;56;20112;-28
2023/04/26 17:49:31;;;;;;;;;;;22.40;55.00;;;;;;4788136;55;20056;-27
2023/04/26 17:54:34;;;;;;;;;;;22.40;54.90;;;;;;4794102;55;20344;-29
2023/04/26 17:59:36;;;;;;;;;;;22.40;54.80;;;;;;4745791;58;20385;-26
2023/04/26 18:04:36;;;;;;;;;;;22.40;54.70;;;;;;4834353;55;20394;-30
2023/04/26 18:09:37;;;;;;;;;;;22.40;54.70;;;;;;4746239;58;20131;-29
2023/04/26 18:14:43;;;;;;;;;;;22.40;54.70;;;;;;4746822;55;20342;-30
2023/04/26 18:19:44;;;;;;;;;;;22.40;54.70;;;;;;4758197;55;20061;-31
2023/04/26 18:24:45;;;;;;;;;;;22.40;54.60;;;;;;4768661;55;20136;-30
2023/04/26 18:29:47;;;;;;;;;;;22.40;54.50;;;;;;4825804;55;20307;-29
2023/04/26 18:34:48;;;;;;;;;;;22.40;54.40;;;;;;4841165;55;20378;-28
2023/04/26 18:39:49;;;;;;;;;;;22.40;54.40;;;;;;4816323;55;20109;-27
2023/04/26 18:44:49;;;;;;;;;;;22.40;54.40;;;;;;4788027;55;20057;-30
2023/04/26 18:49:50;;;;;;;;;;;22.40;54.30;;;;;;4783536;55;20097;-29
2023/04/26 18:54:51;;;;;;;;;;;22.40;54.30;;;;;;4745052;58;20174;-29
2023/04/26 18:59:51;;;;;;;;;;;22.30;54.20;;;;;;4778247;55;20088;-27
2023/04/26 19:04:52;;;;;;;;;;;22.30;54.10;;;;;;4746319;58;20188;-28
2023/04/26 19:09:55;;;;;;;;;;;22.30;54.20;;;;;;4787712;55;20370;-28
2023/04/26 19:14:56;;;;;;;;;;;22.30;54.30;;;;;;4754698;55;20083;-29
2023/04/26 19:19:57;;;;;;;;;;;22.30;54.10;;;;;;4840019;55;20144;-32
2023/04/26 19:24:57;;;;;;;;;;;22.30;54.10;;;;;;4809151;55;20788;-31
2023/04/26 19:29:58;;;;;;;;;;;22.30;54.00;;;;;;4798316;55;20088;-30
2023/04/26 19:34:58;;;;;;;;;;;22.30;54.00;;;;;;4756355;55;20866;-31
2023/04/26 19:39:59;;;;;;;;;;;22.30;54.10;;;;;;4813843;55;20124;-29
2023/04/26 19:45:00;;;;;;;;;;;22.30;54.00;;;;;;4806662;55;20060;-29
2023/04/26 19:50:00;;;;;;;;;;;22.30;54.00;;;;;;4857401;55;20059;-29
2023/04/26 19:55:01;;;;;;;;;;;22.30;53.90;;;;;;4745708;58;20053;-26
2023/04/26 20:00:03;;;;;;;;;;;22.30;54.00;;;;;;4846332;55;20108;-30
2023/04/26 20:05:04;;;;;;;;;;;22.30;53.90;;;;;;4794315;55;20334;-26
2023/04/26 20:10:05;;;;;;;;;;;22.30;53.90;;;;;;4778151;55;20112;-28
2023/04/26 20:15:07;;;;;;;;;;;22.30;53.90;;;;;;4776962;55;20057;-28
2023/04/26 20:20:08;;;;;;;;;;;22.30;53.80;;;;;;4818428;55;20271;-28
2023/04/26 20:25:09;;;;;;;;;;;22.30;53.80;;;;;;4762398;55;20331;-27
2023/04/26 20:30:10;;;;;;;;;;;22.30;53.80;;;;;;4745582;58;20153;-31
2023/04/26 20:35:12;;;;;;;;;;;22.20;53.70;;;;;;4759204;55;20394;-25
2023/04/26 20:40:13;;;;;;;;;;;22.20;53.80;;;;;;4759619;55;20427;-28
2023/04/26 20:45:15;;;;;;;;;;;22.30;53.70;;;;;;4829749;55;20108;-28
2023/04/26 20:50:15;;;;;;;;;;;22.30;53.70;;;;;;4746880;58;20347;-31
2023/04/26 20:55:16;;;;;;;;;;;22.20;53.60;;;;;;4824431;55;20116;-30
2023/04/26 21:00:17;;;;;;;;;;;22.20;53.70;;;;;;4746606;58;20120;-30
2023/04/26 21:05:18;;;;;;;;;;;22.20;53.50;;;;;;4786677;55;20199;-25
2023/04/26 21:10:18;;;;;;;;;;;22.20;53.50;;;;;;4746493;58;20116;-27
2023/04/26 21:15:19;;;;;;;;;;;22.20;53.50;;;;;;4846331;55;20116;-28
2023/04/26 21:20:20;;;;;;;;;;;22.20;53.50;;;;;;4855065;55;20307;-27
2023/04/26 21:25:21;;;;;;;;;;;22.20;53.50;;;;;;4765241;55;20127;-27
2023/04/26 21:30:22;;;;;;;;;;;22.20;53.40;;;;;;4746122;58;20283;-31
2023/04/26 21:35:25;;;;;;;;;;;22.20;53.40;;;;;;4821391;55;20049;-32
2023/04/26 21:40:26;;;;;;;;;;;22.20;53.60;;;;;;4756707;55;20073;-29
2023/04/26 21:45:26;;;;;;;;;;;22.20;53.50;;;;;;4746453;58;20382;-27
2023/04/26 21:50:27;;;;;;;;;;;22.20;53.50;;;;;;4760879;55;20159;-28
2023/04/26 21:55:28;;;;;;;;;;;22.20;53.60;;;;;;4745955;55;20363;-28
2023/04/26 22:00:28;;;;;;;;;;;22.20;53.50;;;;;;4794208;55;20064;-29
2023/04/26 22:05:29;;;;;;;;;;;22.20;53.50;;;;;;4771288;55;20168;-29
2023/04/26 22:10:30;;;;;;;;;;;22.20;53.50;;;;;;4792471;55;20060;-30
2023/04/26 22:15:31;;;;;;;;;;;22.20;53.60;;;;;;4771977;55;20097;-30
2023/04/26 22:20:31;;;;;;;;;;;22.20;53.50;;;;;;4831827;55;20072;-29
2023/04/26 22:25:32;;;;;;;;;;;22.20;53.50;;;;;;4748460;55;20307;-29
2023/04/26 22:30:33;;;;;;;;;;;22.20;53.50;;;;;;4783590;55;20056;-28
2023/04/26 22:35:33;;;;;;;;;;;22.20;53.50;;;;;;4745668;58;20109;-29
2023/04/26 22:40:34;;;;;;;;;;;22.20;53.50;;;;;;4746258;58;20124;-29
2023/04/26 22:45:35;;;;;;;;;;;22.20;53.60;;;;;;4746516;55;20097;-27
2023/04/26 22:50:35;;;;;;;;;;;22.20;53.50;;;;;;4773565;55;20108;-28
2023/04/26 22:55:36;;;;;;;;;;;22.20;53.50;;;;;;4747480;55;20414;-30
2023/04/26 23:00:37;;;;;;;;;;;22.20;53.40;;;;;;4746329;58;20076;-29
2023/04/26 23:05:37;;;;;;;;;;;22.20;53.60;;;;;;4746511;58;20183;-30
2023/04/26 23:10:40;;;;;;;;;;;22.20;53.50;;;;;;4773385;55;20080;-29
2023/04/26 23:15:41;;;;;;;;;;;22.20;53.40;;;;;;4799792;55;20112;-26
2023/04/26 23:20:42;;;;;;;;;;;22.20;54.10;;;;;;4914729;55;20374;-30
2023/04/26 23:25:43;;;;;;;;;;;22.20;53.50;;;;;;4755403;55;20077;-30
2023/04/26 23:30:44;;;;;;;;;;;22.20;53.50;;;;;;4812266;55;20120;-31
2023/04/26 23:35:44;;;;;;;;;;;22.20;53.50;;;;;;4804761;55;20056;-29
2023/04/26 23:40:45;;;;;;;;;;;22.20;53.60;;;;;;4823049;55;20198;-28
2023/04/26 23:45:46;;;;;;;;;;;22.20;53.50;;;;;;4746706;58;20072;-29
2023/04/26 23:50:46;;;;;;;;;;;22.20;53.50;;;;;;4746666;58;20100;-32
2023/04/26 23:55:47;;;;;;;;;;;22.20;53.50;;;;;;4777314;55;20092;-32
